Time;durP1;ratioP1;P1;durP2;ratioP2;P2;SDS_P1;SDS_P2;PMS_P1;PMS_P2;Temp;Humidity;BMP_temperature;BMP_pressure;BME280_temperature;BME280_humidity;BME280_pressure;Samples;Min_cycle;Max_cycle;Signal;HPM_P1;HPM_P2
2023/11/23 00:01:33;;;;;;;3.53;2.30;;;-6.40;92.10;;;;;;5101577;28;20024;-85
2023/11/23 00:03:59;;;;;;;4.50;2.53;;;-6.40;92.30;;;;;;5094874;28;20017;-88
2023/11/23 00:06:25;;;;;;;3.47;1.67;;;-6.40;92.50;;;;;;5083902;28;20016;-87
2023/11/23 00:08:51;;;;;;;4.22;2.28;;;-6.40;92.80;;;;;;5096020;28;20102;-89
2023/11/23 00:11:17;;;;;;;6.40;2.85;;;-6.40;93.10;;;;;;5086698;28;20035;-91
2023/11/23 00:13:43;;;;;;;2.65;2.22;;;-6.50;93.20;;;;;;5097866;28;20038;-89
2023/11/23 00:16:09;;;;;;;3.50;1.95;;;-6.40;93.40;;;;;;5082003;28;20020;-86
2023/11/23 00:18:35;;;;;;;3.55;1.98;;;-6.50;93.50;;;;;;5120577;28;20020;-87
2023/11/23 00:21:01;;;;;;;3.85;1.88;;;-6.50;93.70;;;;;;5123629;28;20024;-90
2023/11/23 00:23:26;;;;;;;2.53;1.60;;;-6.40;93.80;;;;;;5092473;28;20019;-89
2023/11/23 00:25:52;;;;;;;5.53;3.05;;;-6.40;93.80;;;;;;5081978;28;20032;-90
2023/11/23 00:28:19;;;;;;;5.57;4.07;;;-6.40;93.90;;;;;;5095441;28;20583;-89
2023/11/23 00:30:45;;;;;;;2.78;1.70;;;-6.40;93.80;;;;;;5101848;28;20067;-90
2023/11/23 00:33:11;;;;;;;3.58;2.05;;;-6.40;93.80;;;;;;5079859;28;20109;-90
2023/11/23 00:35:37;;;;;;;4.20;1.80;;;-6.40;93.90;;;;;;5081300;28;20036;-87
2023/11/23 00:38:03;;;;;;;7.88;2.28;;;-6.40;93.70;;;;;;5110786;28;20016;-90
2023/11/23 00:40:29;;;;;;;4.18;2.47;;;-6.50;93.60;;;;;;5121244;28;20016;-87
2023/11/23 00:42:55;;;;;;;1.50;1.33;;;-6.50;93.60;;;;;;5119396;28;20092;-91
2023/11/23 00:45:21;;;;;;;3.53;1.48;;;-6.50;93.10;;;;;;5100518;28;20023;-90
2023/11/23 00:47:46;;;;;;;2.88;1.40;;;-6.60;92.40;;;;;;5094698;28;20041;-90
2023/11/23 00:50:12;;;;;;;2.85;1.27;;;-6.60;91.80;;;;;;5085289;28;20104;-89
2023/11/23 00:52:38;;;;;;;1.55;1.30;;;-6.70;91.10;;;;;;5080177;28;20504;-88
2023/11/23 00:55:05;;;;;;;2.42;1.02;;;-6.80;90.00;;;;;;5099917;28;20481;-89
2023/11/23 00:57:35;;;;;;;2.92;1.50;;;-6.80;90.00;;;;;;5105314;28;20034;-87
2023/11/23 01:00:05;;;;;;;2.53;1.65;;;-6.80;89.70;;;;;;5101361;28;20011;-88
2023/11/23 01:02:31;;;;;;;1.70;1.35;;;-6.80;89.50;;;;;;5121053;28;20014;-88
2023/11/23 01:04:57;;;;;;;2.50;1.42;;;-6.90;89.10;;;;;;5117532;28;20051;-86
2023/11/23 01:07:23;;;;;;;2.08;1.52;;;-6.90;89.10;;;;;;5076406;28;20103;-88
2023/11/23 01:09:49;;;;;;;2.20;1.48;;;-6.80;88.80;;;;;;5079153;28;20039;-87
2023/11/23 01:12:16;;;;;;;1.88;1.10;;;-6.80;88.10;;;;;;5113982;28;20008;-87
2023/11/23 01:14:42;;;;;;;1.33;1.10;;;-6.90;88.10;;;;;;5117831;28;20016;-86
2023/11/23 01:17:08;;;;;;;1.80;1.13;;;-6.90;88.30;;;;;;5115082;28;20053;-87
2023/11/23 01:19:34;;;;;;;2.22;1.55;;;-6.80;88.60;;;;;;5109596;28;20015;-86
2023/11/23 01:22:00;;;;;;;1.60;1.08;;;-6.80;89.00;;;;;;5123529;28;20023;-87
2023/11/23 01:24:26;;;;;;;1.15;1.00;;;-6.70;89.40;;;;;;5118791;28;20023;-87
2023/11/23 01:26:51;;;;;;;2.05;1.55;;;-6.70;89.50;;;;;;5123460;28;20016;-87
2023/11/23 01:29:19;;;;;;;1.58;1.27;;;-6.60;89.40;;;;;;5113609;28;20054;-88
2023/11/23 01:31:45;;;;;;;3.92;1.30;;;-6.60;89.60;;;;;;5098686;28;20030;-87
2023/11/23 01:34:10;;;;;;;1.02;0.90;;;-6.60;89.40;;;;;;5081936;28;20020;-87
2023/11/23 01:36:36;;;;;;;1.40;1.17;;;-6.70;89.60;;;;;;5103939;28;20069;-86
2023/11/23 01:39:02;;;;;;;1.75;1.23;;;-6.70;88.90;;;;;;5114322;28;20008;-87
2023/11/23 01:41:28;;;;;;;2.55;1.50;;;-6.80;88.80;;;;;;5097268;28;20012;-85
2023/11/23 01:43:54;;;;;;;2.13;1.27;;;-6.80;89.20;;;;;;5130074;28;20018;-87
2023/11/23 01:46:20;;;;;;;1.05;0.70;;;-6.70;89.60;;;;;;5119881;28;20027;-84
2023/11/23 01:48:47;;;;;;;1.65;1.08;;;-6.70;89.80;;;;;;5112941;28;20119;-87
2023/11/23 01:51:13;;;;;;;1.15;0.85;;;-6.70;89.80;;;;;;5102417;28;20023;-88
2023/11/23 01:53:41;;;;;;;2.15;1.35;;;-6.70;89.40;;;;;;5110166;28;20080;-87
2023/11/23 01:56:09;;;;;;;1.58;1.27;;;-6.70;89.20;;;;;;5112794;28;20012;-89
2023/11/23 01:58:35;;;;;;;1.95;1.50;;;-6.70;88.70;;;;;;5114087;28;20452;-89
2023/11/23 02:01:03;;;;;;;2.00;1.15;;;-6.70;89.00;;;;;;5076496;28;20036;-89
2023/11/23 02:03:28;;;;;;;1.55;1.05;;;-6.70;89.10;;;;;;5095454;28;20012;-90
2023/11/23 02:05:54;;;;;;;1.38;1.15;;;-6.70;89.50;;;;;;5074831;28;20024;-87
2023/11/23 02:08:20;;;;;;;1.13;0.82;;;-6.60;89.80;;;;;;5077361;28;20029;-90
2023/11/23 02:10:46;;;;;;;4.10;1.42;;;-6.60;90.00;;;;;;5094853;28;20081;-89
2023/11/23 02:13:12;;;;;;;2.85;1.45;;;-6.60;90.20;;;;;;5077013;28;20024;-89
2023/11/23 02:15:39;;;;;;;1.88;1.08;;;-6.70;90.20;;;;;;5077344;28;20032;-89
2023/11/23 02:18:06;;;;;;;1.27;0.73;;;-6.60;90.30;;;;;;5080752;28;20466;-89
2023/11/23 02:20:32;;;;;;;2.20;1.15;;;-6.70;89.60;;;;;;5110423;28;20040;-90
2023/11/23 02:23:01;;;;;;;2.33;1.27;;;-6.70;89.90;;;;;;5079018;28;20020;-88
2023/11/23 02:25:28;;;;;;;1.80;0.95;;;-6.80;89.60;;;;;;5093055;28;20446;-87
2023/11/23 02:27:53;;;;;;;1.77;1.17;;;-6.70;90.00;;;;;;5120550;28;20067;-87
2023/11/23 02:30:19;;;;;;;4.28;1.00;;;-6.70;90.00;;;;;;5102874;28;20031;-88
2023/11/23 02:32:46;;;;;;;1.55;1.00;;;-6.60;90.00;;;;;;5108273;28;20012;-91
2023/11/23 02:35:13;;;;;;;1.35;1.25;;;-6.60;89.70;;;;;;5096038;28;20063;-91
2023/11/23 02:37:40;;;;;;;1.17;1.02;;;-6.60;89.60;;;;;;5119405;28;20020;-91
2023/11/23 02:40:07;;;;;;;1.20;1.00;;;-6.60;89.50;;;;;;5104245;28;20027;-89
2023/11/23 02:42:33;;;;;;;1.30;1.08;;;-6.60;89.40;;;;;;5114310;28;20044;-90
2023/11/23 02:44:59;;;;;;;1.73;1.02;;;-6.60;89.40;;;;;;5107069;28;20039;-90
2023/11/23 02:47:25;;;;;;;1.63;1.00;;;-6.60;89.60;;;;;;5116956;28;20024;-87
2023/11/23 02:49:51;;;;;;;2.03;1.45;;;-6.50;89.90;;;;;;5124946;28;20035;-88
2023/11/23 02:52:16;;;;;;;0.88;0.70;;;-6.50;90.00;;;;;;5104975;28;20015;-88
2023/11/23 02:54:42;;;;;;;2.15;1.25;;;-6.50;89.60;;;;;;5112481;28;20027;-88
2023/11/23 02:57:08;;;;;;;1.10;0.80;;;-6.60;89.30;;;;;;5113805;28;20489;-87
2023/11/23 02:59:34;;;;;;;2.47;0.68;;;-6.60;89.00;;;;;;5110811;28;20094;-86
2023/11/23 03:02:00;;;;;;;2.17;1.05;;;-6.60;89.10;;;;;;5111691;28;20125;-87
2023/11/23 03:04:26;;;;;;;1.83;1.08;;;-6.60;89.00;;;;;;5104585;28;20016;-87
2023/11/23 03:06:52;;;;;;;1.85;1.10;;;-6.50;89.10;;;;;;5115050;28;20034;-86
2023/11/23 03:09:19;;;;;;;2.15;1.13;;;-6.50;88.90;;;;;;5116161;28;20059;-88
2023/11/23 03:11:48;;;;;;;0.70;0.70;;;-6.40;88.90;;;;;;5099603;28;20131;-89
2023/11/23 03:14:14;;;;;;;0.57;0.57;;;-6.40;88.70;;;;;;5132116;28;20027;-88
2023/11/23 03:16:41;;;;;;;1.27;0.77;;;-6.50;88.10;;;;;;5138207;28;20038;-89
2023/11/23 03:19:07;;;;;;;1.58;0.88;;;-6.50;87.50;;;;;;5121751;28;20008;-91
2023/11/23 03:21:34;;;;;;;1.10;0.88;;;-6.60;87.40;;;;;;5121575;28;20111;-90
2023/11/23 03:24:00;;;;;;;1.40;1.20;;;-6.60;87.60;;;;;;5114696;28;20023;-90
2023/11/23 03:26:26;;;;;;;2.15;1.33;;;-6.70;88.20;;;;;;5092465;28;20024;-92
2023/11/23 03:28:52;;;;;;;0.57;0.50;;;-6.70;88.70;;;;;;5081666;28;20039;-90
2023/11/23 03:31:18;;;;;;;2.38;1.20;;;-6.70;89.50;;;;;;5100172;28;20067;-90
2023/11/23 03:33:44;;;;;;;3.15;1.40;;;-6.70;90.00;;;;;;5102612;28;20011;-90
2023/11/23 03:36:10;;;;;;;1.77;1.25;;;-6.70;90.30;;;;;;5086697;28;20024;-90
2023/11/23 03:38:37;;;;;;;1.95;1.02;;;-6.70;90.00;;;;;;5102985;28;20104;-89
2023/11/23 03:41:04;;;;;;;3.03;1.13;;;-6.70;90.10;;;;;;5090558;28;20024;-91
2023/11/23 03:43:30;;;;;;;1.50;1.10;;;-6.70;90.00;;;;;;5102090;28;20052;-90
2023/11/23 03:45:56;;;;;;;3.40;1.15;;;-6.70;89.70;;;;;;5089601;28;20154;-89
2023/11/23 03:48:22;;;;;;;2.63;0.87;;;-6.70;90.00;;;;;;5101892;28;20024;-90
2023/11/23 03:50:48;;;;;;;1.67;1.02;;;-6.70;89.90;;;;;;5123260;28;20465;-90
2023/11/23 03:53:14;;;;;;;0.80;0.80;;;-6.70;89.60;;;;;;5119787;28;20011;-89
2023/11/23 03:55:40;;;;;;;2.67;0.85;;;-6.70;89.20;;;;;;5118157;28;20024;-88
2023/11/23 03:58:08;;;;;;;1.52;0.95;;;-6.70;88.60;;;;;;5100704;28;20024;-89
2023/11/23 04:00:34;;;;;;;1.77;1.10;;;-6.70;87.70;;;;;;5080408;28;20123;-90
2023/11/23 04:03:01;;;;;;;5.57;1.60;;;-6.70;87.50;;;;;;5092767;28;20486;-89
2023/11/23 04:05:30;;;;;;;1.25;1.15;;;-6.80;87.50;;;;;;5087400;28;20032;-91
2023/11/23 04:07:56;;;;;;;2.42;0.90;;;-6.80;87.70;;;;;;5085192;28;20020;-90
2023/11/23 04:10:22;;;;;;;0.40;0.40;;;-6.80;87.50;;;;;;5093872;28;20442;-89
2023/11/23 04:12:48;;;;;;;1.08;0.90;;;-6.80;87.50;;;;;;5081141;28;20480;-89
2023/11/23 04:15:13;;;;;;;1.65;1.27;;;-6.90;87.30;;;;;;5106043;28;20070;-89
2023/11/23 04:17:39;;;;;;;1.83;1.15;;;-6.80;87.20;;;;;;5088561;28;20020;-89
2023/11/23 04:20:06;;;;;;;1.65;1.52;;;-6.80;86.70;;;;;;5106454;28;20016;-89
2023/11/23 04:22:32;;;;;;;2.15;1.60;;;-6.80;86.50;;;;;;5091931;28;20465;-90
2023/11/23 04:24:58;;;;;;;2.65;1.48;;;-6.80;86.70;;;;;;5084432;28;20035;-90
2023/11/23 04:27:24;;;;;;;2.55;1.50;;;-6.80;87.00;;;;;;5098610;28;20052;-91
2023/11/23 04:29:50;;;;;;;1.13;0.90;;;-6.70;87.10;;;;;;5111634;28;20114;-88
2023/11/23 04:32:17;;;;;;;1.48;0.80;;;-6.80;87.00;;;;;;5108226;28;20026;-91
2023/11/23 04:34:42;;;;;;;2.47;1.30;;;-6.70;86.90;;;;;;5125781;28;20005;-88
2023/11/23 04:37:09;;;;;;;3.72;1.40;;;-6.70;86.70;;;;;;5125565;28;20038;-87
2023/11/23 04:39:34;;;;;;;0.82;0.75;;;-6.70;86.90;;;;;;5104179;28;20091;-89
2023/11/23 04:42:00;;;;;;;1.67;1.10;;;-6.60;86.70;;;;;;5134512;28;20035;-90
2023/11/23 04:44:26;;;;;;;1.55;1.13;;;-6.60;86.50;;;;;;5106116;28;20020;-89
2023/11/23 04:46:52;;;;;;;4.32;1.33;;;-6.70;86.10;;;;;;5098807;28;20082;-89
2023/11/23 04:49:19;;;;;;;0.98;0.55;;;-6.70;86.00;;;;;;5097874;28;20050;-92
2023/11/23 04:51:45;;;;;;;3.10;1.42;;;-6.70;86.30;;;;;;5093496;28;20077;-90
2023/11/23 04:54:12;;;;;;;1.25;1.10;;;-6.70;86.60;;;;;;5117587;28;20016;-88
2023/11/23 04:56:38;;;;;;;2.60;1.00;;;-6.80;87.10;;;;;;5101752;28;20028;-89
2023/11/23 04:59:04;;;;;;;1.65;1.00;;;-6.80;87.20;;;;;;5096720;28;20020;-90
2023/11/23 05:01:30;;;;;;;2.78;1.40;;;-6.80;87.20;;;;;;5103320;28;20027;-90
2023/11/23 05:03:58;;;;;;;1.90;1.17;;;-6.80;87.30;;;;;;5094675;28;20019;-90
2023/11/23 05:06:24;;;;;;;;;;;-6.80;87.10;;;;;;5099328;28;20024;-89
2023/11/23 05:08:49;;;;;;;2.42;1.30;;;-6.80;86.80;;;;;;5093088;28;19953;-88
2023/11/23 05:11:15;;;;;;;1.05;0.82;;;-6.80;86.70;;;;;;5113792;28;20047;-91
2023/11/23 05:13:42;;;;;;;2.33;2.10;;;-6.70;87.00;;;;;;5096654;28;20016;-91
2023/11/23 05:16:08;;;;;;;2.22;1.17;;;-6.70;87.20;;;;;;5080254;28;20028;-93
2023/11/23 05:18:34;;;;;;;1.48;0.95;;;-6.60;87.70;;;;;;5122638;28;20023;-91
2023/11/23 05:21:00;;;;;;;1.20;1.02;;;-6.60;87.00;;;;;;5107045;28;20054;-88
2023/11/23 05:23:26;;;;;;;4.60;1.42;;;-6.60;86.90;;;;;;5093825;28;20019;-88
2023/11/23 05:25:52;;;;;;;1.85;1.30;;;-6.60;86.90;;;;;;5076036;28;20024;-87
2023/11/23 05:28:19;;;;;;;7.10;2.03;;;-6.50;87.00;;;;;;5076586;28;20016;-88
2023/11/23 05:30:45;;;;;;;3.13;1.42;;;-6.60;87.00;;;;;;5095173;28;20051;-87
2023/11/23 05:33:12;;;;;;;2.90;1.80;;;-6.50;87.20;;;;;;5077047;28;20027;-88
2023/11/23 05:35:38;;;;;;;2.97;1.63;;;-6.50;87.30;;;;;;5080950;28;20055;-87
2023/11/23 05:38:03;;;;;;;3.45;1.20;;;-6.40;87.30;;;;;;5107862;28;20024;-88
2023/11/23 05:40:29;;;;;;;5.25;1.55;;;-6.40;87.30;;;;;;5102556;28;20038;-88
2023/11/23 05:42:55;;;;;;;1.55;1.38;;;-6.40;87.40;;;;;;5115651;28;20044;-89
2023/11/23 05:45:21;;;;;;;2.17;1.17;;;-6.30;87.50;;;;;;5113544;28;20373;-87
2023/11/23 05:47:47;;;;;;;4.60;1.77;;;-6.30;87.30;;;;;;5076981;28;20028;-87
2023/11/23 05:50:13;;;;;;;4.82;1.77;;;-6.30;87.30;;;;;;5108879;28;20110;-87
2023/11/23 05:52:41;;;;;;;2.20;1.23;;;-6.30;87.50;;;;;;5103886;28;20023;-86
2023/11/23 05:55:07;;;;;;;3.25;1.50;;;-6.40;87.40;;;;;;5108929;28;20099;-89
2023/11/23 05:57:33;;;;;;;3.13;1.80;;;-6.40;87.40;;;;;;5092657;28;20020;-86
2023/11/23 05:59:59;;;;;;;3.70;2.05;;;-6.40;87.60;;;;;;5089143;28;20030;-89
2023/11/23 06:02:25;;;;;;;3.28;1.83;;;-6.40;87.80;;;;;;5117297;28;20020;-89
2023/11/23 06:04:50;;;;;;;3.38;1.77;;;-6.40;88.20;;;;;;5107974;28;20031;-89
2023/11/23 06:07:18;;;;;;;1.77;1.20;;;-6.30;88.60;;;;;;5120451;28;20027;-90
2023/11/23 06:09:58;;;;;;;3.15;1.30;;;-6.40;88.80;;;;;;5127293;28;20110;-90
2023/11/23 06:12:27;;;;;;;1.73;1.25;;;-6.40;88.90;;;;;;5059446;28;20040;-88
2023/11/23 06:14:53;;;;;;;2.63;1.50;;;-6.40;88.60;;;;;;5083003;28;20078;-91
2023/11/23 06:17:21;;;;;;;5.78;1.42;;;-6.40;88.60;;;;;;5104920;28;20016;-85
2023/11/23 06:19:49;;;;;;;2.67;1.63;;;-6.30;88.50;;;;;;5120939;28;20038;-92
2023/11/23 06:22:15;;;;;;;2.33;1.40;;;-6.30;88.30;;;;;;5134615;28;20031;-90
2023/11/23 06:24:41;;;;;;;9.82;2.15;;;-6.40;88.00;;;;;;5118991;28;20039;-89
2023/11/23 06:27:09;;;;;;;3.65;1.35;;;-6.30;88.00;;;;;;5118577;28;20027;-90
2023/11/23 06:29:35;;;;;;;2.38;2.17;;;-6.30;87.80;;;;;;5118100;28;20043;-89
2023/11/23 06:32:01;;;;;;;4.35;2.03;;;-6.20;87.80;;;;;;5107001;28;20020;-89
2023/11/23 06:34:28;;;;;;;3.03;1.70;;;-6.20;87.80;;;;;;5119478;28;20032;-89
2023/11/23 06:36:54;;;;;;;3.38;1.30;;;-6.20;87.80;;;;;;5102738;28;20046;-91
2023/11/23 06:39:23;;;;;;;3.28;2.10;;;-6.20;87.80;;;;;;5104599;28;20057;-90
2023/11/23 06:41:53;;;;;;;7.28;2.60;;;-6.20;87.70;;;;;;5108958;28;20051;-89
2023/11/23 06:44:25;;;;;;;1.83;1.20;;;-6.20;88.10;;;;;;5137238;28;20023;-90
2023/11/23 06:46:51;;;;;;;3.60;2.08;;;-6.30;88.00;;;;;;5085471;28;20036;-91
2023/11/23 06:49:17;;;;;;;1.88;1.00;;;-6.30;88.20;;;;;;5095555;28;20028;-90
2023/11/23 06:51:43;;;;;;;5.90;2.20;;;-6.30;88.50;;;;;;5112836;28;20052;-90
2023/11/23 06:54:09;;;;;;;3.88;1.58;;;-6.30;88.70;;;;;;5108340;28;20081;-90
2023/11/23 06:56:35;;;;;;;3.83;1.35;;;-6.30;88.70;;;;;;5074193;28;20127;-90
2023/11/23 06:59:01;;;;;;;4.22;1.42;;;-6.20;88.20;;;;;;5113685;28;20024;-92
2023/11/23 07:01:28;;;;;;;3.42;1.50;;;-6.20;87.60;;;;;;5108518;28;20032;-92
2023/11/23 07:03:54;;;;;;;1.55;1.40;;;-6.20;87.40;;;;;;5091056;28;20039;-90
2023/11/23 07:06:24;;;;;;;3.05;1.48;;;-6.20;87.10;;;;;;5110476;28;20111;-90
2023/11/23 07:08:51;;;;;;;2.40;1.90;;;-6.20;87.00;;;;;;5086884;28;20081;-91
2023/11/23 07:11:19;;;;;;;3.90;1.90;;;-6.20;87.10;;;;;;5083831;28;20032;-89
2023/11/23 07:13:47;;;;;;;1.90;1.48;;;-6.20;87.30;;;;;;5087262;28;20028;-90
2023/11/23 07:16:13;;;;;;;3.08;1.60;;;-6.20;87.00;;;;;;5104521;28;20069;-92
2023/11/23 07:18:40;;;;;;;2.80;1.40;;;-6.20;87.00;;;;;;5101370;28;20020;-91
2023/11/23 07:21:06;;;;;;;3.22;1.73;;;-6.20;86.70;;;;;;5121456;28;20380;-90
2023/11/23 07:23:32;;;;;;;1.23;0.90;;;-6.20;86.90;;;;;;5107754;28;20032;-89
2023/11/23 07:25:58;;;;;;;1.80;1.20;;;-6.30;86.60;;;;;;5105904;28;20030;-90
2023/11/23 07:28:26;;;;;;;5.15;1.77;;;-6.50;86.40;;;;;;5091003;28;20080;-92
2023/11/23 07:30:56;;;;;;;2.58;1.30;;;-6.50;86.80;;;;;;5084313;28;20061;-90
2023/11/23 07:33:24;;;;;;;3.17;1.92;;;-6.40;87.30;;;;;;5099340;28;20108;-89
2023/11/23 07:35:57;;;;;;;2.33;1.30;;;-6.40;86.80;;;;;;5086495;28;20092;-90
2023/11/23 07:38:23;;;;;;;3.65;1.30;;;-6.30;86.80;;;;;;5083665;28;20114;-89
2023/11/23 07:40:48;;;;;;;6.38;1.40;;;-6.20;86.80;;;;;;5107127;28;20047;-91
2023/11/23 07:43:14;;;;;;;3.13;1.65;;;-6.10;86.90;;;;;;5112389;28;20047;-90
2023/11/23 07:45:40;;;;;;;1.67;1.38;;;-6.10;86.60;;;;;;5102153;28;20079;-92
2023/11/23 07:48:13;;;;;;;3.67;1.75;;;-6.00;86.00;;;;;;5094817;28;20051;-92
2023/11/23 07:50:39;;;;;;;5.97;1.38;;;-6.20;86.00;;;;;;5135860;28;20087;-90
2023/11/23 07:53:07;;;;;;;1.67;1.23;;;-6.20;86.30;;;;;;5110391;28;20009;-88
2023/11/23 07:55:33;;;;;;;2.38;1.45;;;-6.10;86.60;;;;;;5111446;28;20048;-89
2023/11/23 07:57:59;;;;;;;5.13;1.95;;;-6.10;86.60;;;;;;5097802;28;20032;-91
2023/11/23 08:00:25;;;;;;;2.47;1.55;;;-6.00;86.90;;;;;;5101369;28;20039;-91
2023/11/23 08:02:55;;;;;;;3.30;1.65;;;-5.80;86.80;;;;;;5092531;28;20033;-90
2023/11/23 08:05:21;;;;;;;1.30;1.20;;;-5.70;86.50;;;;;;5083884;28;20028;-90
2023/11/23 08:07:53;;;;;;;7.82;2.20;;;-5.70;86.20;;;;;;5112173;28;20096;-91
2023/11/23 08:10:19;;;;;;;3.13;2.28;;;-5.70;86.10;;;;;;5108798;28;20063;-91
2023/11/23 08:12:49;;;;;;;5.22;1.52;;;-5.70;85.70;;;;;;5091998;28;20040;-91
2023/11/23 08:15:15;;;;;;;3.17;1.13;;;-5.80;85.70;;;;;;5076146;28;20028;-92
2023/11/23 08:17:41;;;;;;;3.25;1.55;;;-5.70;85.80;;;;;;5112408;28;20104;-91
2023/11/23 08:20:09;;;;;;;3.00;1.63;;;-5.60;85.80;;;;;;5102536;28;20032;-94
2023/11/23 08:22:36;;;;;;;3.78;1.40;;;-5.50;85.70;;;;;;5094022;28;20028;-89
2023/11/23 08:25:02;;;;;;;;;;;-5.40;85.50;;;;;;5100011;28;20090;-89
2023/11/23 08:27:30;;;;;;;2.17;1.50;;;-5.40;85.10;;;;;;5108200;28;19908;-91
2023/11/23 08:29:55;;;;;;;1.75;1.05;;;-5.30;84.70;;;;;;5106770;28;20424;-91
2023/11/23 08:32:21;;;;;;;5.72;2.35;;;-5.30;84.40;;;;;;5116710;28;20024;-90
2023/11/23 08:34:51;;;;;;;4.85;1.85;;;-5.40;84.50;;;;;;5117581;28;20028;-89
2023/11/23 08:37:17;;;;;;;4.57;2.40;;;-5.40;85.00;;;;;;5104467;28;20005;-91
2023/11/23 08:39:46;;;;;;;3.65;1.42;;;-5.30;84.70;;;;;;5115498;28;20028;-92
2023/11/23 08:42:12;;;;;;;3.35;1.63;;;-5.20;84.80;;;;;;5112110;28;20131;-92
2023/11/23 08:44:38;;;;;;;6.43;2.53;;;-5.10;84.70;;;;;;5096260;28;20127;-92
2023/11/23 08:47:04;;;;;;;4.20;2.33;;;-5.10;84.50;;;;;;5106319;28;20047;-90
2023/11/23 08:49:31;;;;;;;4.13;1.75;;;-5.20;84.10;;;;;;5128309;28;20166;-92
2023/11/23 08:51:58;;;;;;;3.40;1.92;;;-5.30;83.90;;;;;;5114494;28;20039;-91
2023/11/23 08:54:24;;;;;;;2.50;1.38;;;-5.40;84.00;;;;;;5109657;28;20047;-93
2023/11/23 08:56:50;;;;;;;2.70;2.10;;;-5.40;84.50;;;;;;5103472;28;20103;-92
2023/11/23 08:59:16;;;;;;;2.13;1.58;;;-5.30;84.90;;;;;;5106706;28;20020;-90
2023/11/23 09:01:43;;;;;;;6.38;2.47;;;-5.20;84.90;;;;;;5116506;28;20087;-91
2023/11/23 09:04:09;;;;;;;;;;;-5.10;85.10;;;;;;5104214;28;20016;-90
2023/11/23 09:06:36;;;;;;;4.15;1.63;;;-4.90;85.20;;;;;;5115248;28;19911;-91
2023/11/23 09:09:06;;;;;;;3.20;1.77;;;-4.80;84.80;;;;;;5126309;28;20031;-91
2023/11/23 09:11:33;;;;;;;4.57;2.63;;;-4.60;84.40;;;;;;5110325;28;20485;-92
2023/11/23 09:14:02;;;;;;;3.67;2.33;;;-4.60;84.00;;;;;;5126273;28;20345;-90
2023/11/23 09:16:29;;;;;;;1.83;1.58;;;-4.80;83.10;;;;;;5112712;28;20057;-91
2023/11/23 09:18:55;;;;;;;2.38;2.03;;;-4.90;83.50;;;;;;5118792;28;20016;-90
2023/11/23 09:21:23;;;;;;;3.70;1.80;;;-5.20;83.40;;;;;;5121667;28;20036;-89
2023/11/23 09:23:48;;;;;;;;;;;-5.20;83.90;;;;;;5099125;28;20091;-92
2023/11/23 09:26:14;;;;;;;5.35;1.90;;;-5.30;84.30;;;;;;5106724;28;19922;-93
2023/11/23 09:28:42;;;;;;;2.70;1.85;;;-5.40;84.30;;;;;;5122443;28;20349;-93
2023/11/23 09:31:08;;;;;;;5.70;2.05;;;-5.50;84.30;;;;;;5073640;28;20037;-92
2023/11/23 09:33:35;;;;;;;2.88;1.75;;;-5.60;84.80;;;;;;5058752;28;20441;-92
2023/11/23 09:36:02;;;;;;;4.88;2.17;;;-5.80;85.20;;;;;;5066116;28;20032;-91
2023/11/23 09:38:28;;;;;;;4.90;2.50;;;-5.70;85.80;;;;;;5077208;28;20054;-89
2023/11/23 09:41:02;;;;;;;4.45;2.10;;;-5.70;86.10;;;;;;5073458;28;20254;-91
2023/11/23 09:43:30;;;;;;;5.60;2.60;;;-5.60;85.70;;;;;;5053336;28;20048;-93
2023/11/23 09:45:56;;;;;;;7.22;2.75;;;-5.60;85.50;;;;;;5042569;28;20025;-92
2023/11/23 09:48:25;;;;;;;5.65;2.42;;;-5.60;85.50;;;;;;5059477;28;20115;-90
2023/11/23 09:50:52;;;;;;;2.72;2.10;;;-5.70;85.20;;;;;;5038152;28;20086;-92
2023/11/23 09:53:18;;;;;;;5.40;2.22;;;-5.70;85.30;;;;;;5069185;28;20052;-93
2023/11/23 09:55:46;;;;;;;6.30;2.65;;;-5.70;85.20;;;;;;5048658;28;20065;-91
2023/11/23 09:58:14;;;;;;;4.90;2.00;;;-5.70;85.70;;;;;;5063928;28;20063;-90
2023/11/23 10:00:40;;;;;;;1.88;1.40;;;-5.70;85.20;;;;;;5052045;28;20144;-92
2023/11/23 10:03:07;;;;;;;6.30;2.35;;;-5.70;84.80;;;;;;5031383;28;20129;-92
2023/11/23 10:05:38;;;;;;;3.70;1.88;;;-5.80;85.00;;;;;;5066715;28;20043;-91
2023/11/23 10:08:04;;;;;;;5.38;2.22;;;-5.90;84.70;;;;;;5082320;28;20035;-92
2023/11/23 10:10:30;;;;;;;1.17;1.05;;;-5.90;85.10;;;;;;5083129;28;20048;-93
2023/11/23 10:12:58;;;;;;;7.22;3.20;;;-5.90;85.00;;;;;;5080976;28;20033;-91
2023/11/23 10:15:26;;;;;;;2.72;1.80;;;-6.00;85.30;;;;;;5091361;28;20027;-92
2023/11/23 10:17:52;;;;;;;3.75;3.08;;;-5.90;85.70;;;;;;5085657;28;20028;-91
2023/11/23 10:20:18;;;;;;;2.70;1.95;;;-5.90;85.70;;;;;;5073426;28;20024;-91
2023/11/23 10:22:47;;;;;;;1.77;1.38;;;-5.90;85.40;;;;;;5085180;28;20461;-92
2023/11/23 10:25:34;;;;;;;3.97;2.40;;;-5.90;85.40;;;;;;5070823;28;20440;-91
2023/11/23 10:28:06;;;;;;;3.38;2.15;;;-5.90;85.60;;;;;;5086223;28;20040;-92
2023/11/23 10:30:33;;;;;;;2.88;1.30;;;-6.00;85.70;;;;;;5070891;28;20028;-90
2023/11/23 10:33:00;;;;;;;6.57;2.75;;;-5.90;85.80;;;;;;5071552;28;20032;-91
2023/11/23 10:35:36;;;;;;;4.43;3.03;;;-6.00;85.60;;;;;;5088887;28;20046;-91
2023/11/23 10:38:03;;;;;;;3.45;2.17;;;-5.90;85.80;;;;;;5094106;28;20027;-90
2023/11/23 10:40:32;;;;;;;5.03;2.30;;;-5.90;85.40;;;;;;5111188;28;20019;-91
2023/11/23 10:43:01;;;;;;;6.70;2.25;;;-5.90;85.00;;;;;;5060023;28;20120;-92
2023/11/23 10:45:30;;;;;;;4.57;2.50;;;-5.90;84.90;;;;;;5092913;28;20083;-91
2023/11/23 10:48:01;;;;;;;2.47;1.88;;;-5.90;84.90;;;;;;5077407;28;20039;-91
2023/11/23 10:50:31;;;;;;;7.75;2.75;;;-5.90;85.00;;;;;;5113310;28;20079;-92
2023/11/23 10:53:00;;;;;;;11.35;2.47;;;-5.90;84.60;;;;;;5100866;28;20090;-90
2023/11/23 10:55:28;;;;;;;4.68;1.75;;;-6.00;84.70;;;;;;5106972;28;20033;-87
2023/11/23 10:58:09;;;;;;;4.55;2.45;;;-6.00;84.60;;;;;;5118758;28;20035;-94
2023/11/23 11:00:39;;;;;;;3.40;2.10;;;-6.00;85.10;;;;;;5112926;28;20031;-90
2023/11/23 11:03:08;;;;;;;3.08;1.85;;;-6.10;84.80;;;;;;5122204;28;20016;-90
2023/11/23 11:05:45;;;;;;;5.63;4.13;;;-6.10;85.10;;;;;;5085446;28;20050;-92
2023/11/23 11:08:17;;;;;;;3.75;1.83;;;-6.10;85.20;;;;;;5119018;28;20039;-89
2023/11/23 11:10:48;;;;;;;2.97;1.95;;;-6.10;85.00;;;;;;5120175;28;20031;-91
2023/11/23 11:13:20;;;;;;;3.92;2.17;;;-6.10;85.30;;;;;;5136710;28;20045;-91
2023/11/23 11:15:57;;;;;;;3.58;1.48;;;-6.10;85.30;;;;;;5104284;28;20037;-89
2023/11/23 11:18:26;;;;;;;;;;;-6.10;85.30;;;;;;5067441;28;20048;-90
2023/11/23 11:21:12;;;;;;;3.33;1.63;;;-6.20;85.70;;;;;;5036370;28;19905;-92
2023/11/23 11:23:43;;;;;;;3.40;1.80;;;-6.20;86.50;;;;;;5054034;28;20041;-89
2023/11/23 11:26:18;;;;;;;2.72;1.80;;;-6.30;87.30;;;;;;5055488;28;20137;-90
2023/11/23 11:29:06;;;;;;;3.35;2.03;;;-6.30;88.30;;;;;;5056012;28;20040;-91
2023/11/23 11:31:40;;;;;;;1.42;1.13;;;-6.40;89.40;;;;;;5058345;28;20052;-90
2023/11/23 11:34:17;;;;;;;4.22;1.75;;;-6.40;90.20;;;;;;5070099;28;20085;-89
2023/11/23 11:36:46;;;;;;;3.28;1.67;;;-6.60;91.10;;;;;;5031517;28;20113;-90
2023/11/23 11:39:14;;;;;;;3.40;1.75;;;-6.60;91.50;;;;;;5051172;28;20048;-90
2023/11/23 11:41:50;;;;;;;5.18;2.97;;;-6.60;92.30;;;;;;5024907;28;20049;-90
2023/11/23 11:44:45;;;;;;;5.18;2.83;;;-6.70;92.60;;;;;;4980205;27;4064206;-90
2023/11/23 11:47:12;;;;;;;12.93;5.40;;;-6.60;93.00;;;;;;5096835;28;20040;-91
2023/11/23 11:49:38;;;;;;;2.63;1.98;;;-6.60;93.40;;;;;;5090991;28;20067;-90
2023/11/23 11:52:12;;;;;;;4.60;2.60;;;-6.70;94.00;;;;;;5095937;28;20024;-88
2023/11/23 11:54:38;;;;;;;6.43;2.83;;;-6.80;94.30;;;;;;5065522;28;20561;-92
2023/11/23 11:57:04;;;;;;;5.82;2.45;;;-6.70;94.80;;;;;;5069619;28;20089;-91
2023/11/23 11:59:35;;;;;;;2.20;1.55;;;-6.70;94.90;;;;;;5101966;28;20032;-91
2023/11/23 12:02:03;;;;;;;2.78;1.95;;;-6.70;95.00;;;;;;5079187;28;20116;-91
2023/11/23 12:04:35;;;;;;;2.40;1.67;;;-6.80;95.20;;;;;;5085643;28;20048;-91
2023/11/23 12:07:01;;;;;;;1.55;1.40;;;-6.90;95.40;;;;;;5072721;28;20050;-90
2023/11/23 12:09:28;;;;;;;2.67;1.85;;;-7.00;95.80;;;;;;5092174;28;20042;-91
2023/11/23 12:12:04;;;;;;;3.05;1.88;;;-6.90;96.10;;;;;;5127254;28;20020;-89
2023/11/23 12:14:35;;;;;;;7.05;3.20;;;-6.90;96.40;;;;;;5128210;28;20053;-88
2023/11/23 12:17:16;;;;;;;4.32;3.00;;;-6.90;96.70;;;;;;5092520;28;20028;-89
2023/11/23 12:19:53;;;;;;;3.08;2.08;;;-6.80;97.10;;;;;;5104006;28;20024;-90
2023/11/23 12:22:23;;;;;;;3.83;2.72;;;-6.70;97.10;;;;;;5119359;28;20016;-90
2023/11/23 12:24:49;;;;;;;2.60;1.50;;;-6.80;96.90;;;;;;5138358;28;20023;-90
2023/11/23 12:27:15;;;;;;;7.50;2.67;;;-6.80;97.10;;;;;;5140435;28;20024;-90
2023/11/23 12:29:41;;;;;;;5.00;2.88;;;-6.90;97.00;;;;;;5155989;28;20045;-88
2023/11/23 12:32:07;;;;;;;5.65;2.47;;;-6.90;97.10;;;;;;5154015;28;20015;-92
2023/11/23 12:34:34;;;;;;;10.40;2.97;;;-6.90;96.50;;;;;;5144842;28;20034;-92
2023/11/23 12:37:00;;;;;;;11.05;4.63;;;-7.00;96.90;;;;;;5125435;28;20039;-90
2023/11/23 12:39:29;;;;;;;5.03;3.17;;;-7.00;97.20;;;;;;5138556;28;20019;-90
2023/11/23 12:41:57;;;;;;;5.18;3.10;;;-7.00;97.40;;;;;;5121330;27;20786;-90
2023/11/23 12:44:23;;;;;;;2.05;1.52;;;-6.90;97.50;;;;;;5105366;28;20067;-91
2023/11/23 12:46:51;;;;;;;4.00;3.33;;;-6.90;97.50;;;;;;5126851;28;20084;-89
2023/11/23 12:49:19;;;;;;;5.72;3.08;;;-7.00;97.10;;;;;;5136324;28;20023;-91